Terminal Aerodrome Forecast
Issued by NWS

Home | Current Version | Previous Version | Text Only | Print | Product List | Glossary On
Versions: 1 2 3 4 5 6 7 8 9 10 11 12 13 14 15 16 17 18
778
FTAK31 PAJN 222326
TAFAKT
TAF
PAKT 222326Z 2300/2324 13010KT P6SM -SHRA BKN015 OVC030
     FM230200 14009G16KT P6SM -SHRA SCT010 OVC025
     FM231800 13008KT P6SM VCSH SCT020 OVC040=

USA.gov is the U.S. government's official web portal to all federal, state and local government web resources and services.